Madoi, China
Current Conditions -  °F | °C
As of 7:00 AM on Thursday 23 Oct 2014 (Local Time) from ZLLL Reporting Station
Clear Clear  
Wind Chill: 26°   Ceiling: Unl
Heat Index: 32°   Visibility: 4mi
Dew Point: 28°   Wind: 7mph
Humidity: 87%   Direction: 330°NNW
Pressure: 30.24"   Gusts: NA
Location:  34.92°N, 98.22°E
Report Text: ZLLL 222300Z 33003MPS 7000 NSC 00/M02 Q1024 NOSIG
Loading
Personal Weather Stations






























Interactive Weather Map
Tropical Storm Tracking
New forecast layout! Learn more

10-Day Weather Forecast

Advertisements
Track Severe Weather on mobile